sensor_id;sensor_type;location;lat;lon;timestamp;temperature;humidity
57132;DHT22;43005;52.922;5.742;2022-08-06T00:02:21;15.30;91.40
57132;DHT22;43005;52.922;5.742;2022-08-06T00:04:49;15.30;91.10
57132;DHT22;43005;52.922;5.742;2022-08-06T00:07:17;15.30;91.50
57132;DHT22;43005;52.922;5.742;2022-08-06T00:09:44;15.30;91.30
57132;DHT22;43005;52.922;5.742;2022-08-06T00:12:11;15.30;92.00
57132;DHT22;43005;52.922;5.742;2022-08-06T00:14:37;15.30;92.70
57132;DHT22;43005;52.922;5.742;2022-08-06T00:17:04;15.20;92.60
57132;DHT22;43005;52.922;5.742;2022-08-06T00:19:31;15.20;93.20
57132;DHT22;43005;52.922;5.742;2022-08-06T00:21:58;15.20;93.10
57132;DHT22;43005;52.922;5.742;2022-08-06T00:24:26;15.10;93.60
57132;DHT22;43005;52.922;5.742;2022-08-06T00:26:52;15.20;94.20
57132;DHT22;43005;52.922;5.742;2022-08-06T00:29:19;15.10;93.90
57132;DHT22;43005;52.922;5.742;2022-08-06T00:31:46;15.10;94.30
57132;DHT22;43005;52.922;5.742;2022-08-06T00:34:13;15.10;93.60
57132;DHT22;43005;52.922;5.742;2022-08-06T00:36:39;15.00;92.70
57132;DHT22;43005;52.922;5.742;2022-08-06T00:39:06;15.00;91.30
57132;DHT22;43005;52.922;5.742;2022-08-06T00:41:35;14.90;92.70
57132;DHT22;43005;52.922;5.742;2022-08-06T00:44:02;15.00;94.40
57132;DHT22;43005;52.922;5.742;2022-08-06T00:46:28;15.00;94.80
57132;DHT22;43005;52.922;5.742;2022-08-06T00:48:55;15.00;94.90
57132;DHT22;43005;52.922;5.742;2022-08-06T00:51:22;14.90;94.50
57132;DHT22;43005;52.922;5.742;2022-08-06T00:53:49;14.90;94.10
57132;DHT22;43005;52.922;5.742;2022-08-06T00:56:15;15.00;94.50
57132;DHT22;43005;52.922;5.742;2022-08-06T00:58:44;14.90;93.70
57132;DHT22;43005;52.922;5.742;2022-08-06T01:01:10;14.80;93.30
57132;DHT22;43005;52.922;5.742;2022-08-06T01:03:37;14.80;95.40
57132;DHT22;43005;52.922;5.742;2022-08-06T01:06:04;14.80;94.80
57132;DHT22;43005;52.922;5.742;2022-08-06T01:08:31;14.80;94.90
57132;DHT22;43005;52.922;5.742;2022-08-06T01:10:57;14.80;95.20
57132;DHT22;43005;52.922;5.742;2022-08-06T01:13:24;14.70;96.30
57132;DHT22;43005;52.922;5.742;2022-08-06T01:15:54;14.70;96.40
57132;DHT22;43005;52.922;5.742;2022-08-06T01:18:23;14.60;96.70
57132;DHT22;43005;52.922;5.742;2022-08-06T01:21:00;14.50;97.10
57132;DHT22;43005;52.922;5.742;2022-08-06T01:23:46;14.50;97.20
57132;DHT22;43005;52.922;5.742;2022-08-06T01:26:27;14.50;97.00
57132;DHT22;43005;52.922;5.742;2022-08-06T01:28:58;14.50;96.30
57132;DHT22;43005;52.922;5.742;2022-08-06T01:31:26;14.50;97.80
57132;DHT22;43005;52.922;5.742;2022-08-06T01:33:56;14.50;97.70
57132;DHT22;43005;52.922;5.742;2022-08-06T01:36:27;14.50;97.40
57132;DHT22;43005;52.922;5.742;2022-08-06T01:38:56;14.50;98.40
57132;DHT22;43005;52.922;5.742;2022-08-06T01:41:24;14.40;97.60
57132;DHT22;43005;52.922;5.742;2022-08-06T01:44:09;14.30;98.90
57132;DHT22;43005;52.922;5.742;2022-08-06T01:46:37;14.40;99.90
57132;DHT22;43005;52.922;5.742;2022-08-06T01:49:06;14.40;98.20
57132;DHT22;43005;52.922;5.742;2022-08-06T01:51:33;14.40;97.80
57132;DHT22;43005;52.922;5.742;2022-08-06T01:54:00;14.30;98.30
57132;DHT22;43005;52.922;5.742;2022-08-06T01:56:28;14.30;99.10
57132;DHT22;43005;52.922;5.742;2022-08-06T01:58:56;14.30;99.00
57132;DHT22;43005;52.922;5.742;2022-08-06T02:01:25;14.30;97.40
57132;DHT22;43005;52.922;5.742;2022-08-06T02:03:53;14.30;98.40
57132;DHT22;43005;52.922;5.742;2022-08-06T02:06:21;14.20;97.90
57132;DHT22;43005;52.922;5.742;2022-08-06T02:08:49;14.20;96.70
57132;DHT22;43005;52.922;5.742;2022-08-06T02:11:17;14.20;99.00
57132;DHT22;43005;52.922;5.742;2022-08-06T02:13:44;14.20;99.60
57132;DHT22;43005;52.922;5.742;2022-08-06T02:16:12;14.10;98.70
57132;DHT22;43005;52.922;5.742;2022-08-06T02:18:41;14.00;99.30
57132;DHT22;43005;52.922;5.742;2022-08-06T02:21:10;14.00;99.80
57132;DHT22;43005;52.922;5.742;2022-08-06T02:23:38;14.00;99.90
57132;DHT22;43005;52.922;5.742;2022-08-06T02:26:05;14.00;98.50
57132;DHT22;43005;52.922;5.742;2022-08-06T02:28:33;13.90;99.30
57132;DHT22;43005;52.922;5.742;2022-08-06T02:31:00;13.90;99.70
57132;DHT22;43005;52.922;5.742;2022-08-06T02:33:27;13.90;99.70
57132;DHT22;43005;52.922;5.742;2022-08-06T02:35:57;14.00;99.90
57132;DHT22;43005;52.922;5.742;2022-08-06T02:38:26;14.00;99.90
57132;DHT22;43005;52.922;5.742;2022-08-06T02:40:55;14.10;99.90
57132;DHT22;43005;52.922;5.742;2022-08-06T02:43:23;14.10;99.90
57132;DHT22;43005;52.922;5.742;2022-08-06T02:45:55;14.10;99.90
57132;DHT22;43005;52.922;5.742;2022-08-06T02:48:25;14.20;99.90
57132;DHT22;43005;52.922;5.742;2022-08-06T02:50:53;14.30;99.90
57132;DHT22;43005;52.922;5.742;2022-08-06T02:53:26;14.40;99.90
57132;DHT22;43005;52.922;5.742;2022-08-06T02:55:57;14.40;99.90
57132;DHT22;43005;52.922;5.742;2022-08-06T02:58:28;14.40;99.90
57132;DHT22;43005;52.922;5.742;2022-08-06T03:00:58;14.50;99.90
57132;DHT22;43005;52.922;5.742;2022-08-06T03:03:26;14.50;99.90
57132;DHT22;43005;52.922;5.742;2022-08-06T03:05:53;14.60;99.90
57132;DHT22;43005;52.922;5.742;2022-08-06T03:08:24;14.80;99.90
57132;DHT22;43005;52.922;5.742;2022-08-06T03:10:52;14.90;99.90
57132;DHT22;43005;52.922;5.742;2022-08-06T03:13:19;15.00;99.90
57132;DHT22;43005;52.922;5.742;2022-08-06T03:15:48;15.20;99.90
57132;DHT22;43005;52.922;5.742;2022-08-06T03:18:15;15.20;99.90
57132;DHT22;43005;52.922;5.742;2022-08-06T03:20:43;15.30;99.90
57132;DHT22;43005;52.922;5.742;2022-08-06T03:23:11;15.30;99.90
57132;DHT22;43005;52.922;5.742;2022-08-06T03:25:40;15.30;99.90
57132;DHT22;43005;52.922;5.742;2022-08-06T03:28:09;15.30;99.90
57132;DHT22;43005;52.922;5.742;2022-08-06T03:30:37;15.30;99.90
57132;DHT22;43005;52.922;5.742;2022-08-06T03:33:06;15.30;99.90
57132;DHT22;43005;52.922;5.742;2022-08-06T03:35:34;15.30;99.90
57132;DHT22;43005;52.922;5.742;2022-08-06T03:38:01;15.40;99.90
57132;DHT22;43005;52.922;5.742;2022-08-06T03:40:28;15.50;99.90
57132;DHT22;43005;52.922;5.742;2022-08-06T03:42:57;15.50;99.90
57132;DHT22;43005;52.922;5.742;2022-08-06T03:45:25;15.50;99.90
57132;DHT22;43005;52.922;5.742;2022-08-06T03:47:53;15.50;99.90
57132;DHT22;43005;52.922;5.742;2022-08-06T03:50:21;15.50;99.90
57132;DHT22;43005;52.922;5.742;2022-08-06T03:52:50;15.50;99.90
57132;DHT22;43005;52.922;5.742;2022-08-06T03:55:19;15.50;99.90
57132;DHT22;43005;52.922;5.742;2022-08-06T03:57:47;15.40;99.90
57132;DHT22;43005;52.922;5.742;2022-08-06T04:00:15;15.30;99.90
57132;DHT22;43005;52.922;5.742;2022-08-06T04:02:44;15.30;99.90
57132;DHT22;43005;52.922;5.742;2022-08-06T04:05:11;15.20;99.90
57132;DHT22;43005;52.922;5.742;2022-08-06T04:07:38;15.10;99.90
57132;DHT22;43005;52.922;5.742;2022-08-06T04:10:05;15.10;99.90
57132;DHT22;43005;52.922;5.742;2022-08-06T04:12:32;15.00;99.90
57132;DHT22;43005;52.922;5.742;2022-08-06T04:14:59;14.90;99.90
57132;DHT22;43005;52.922;5.742;2022-08-06T04:17:28;14.90;99.90
57132;DHT22;43005;52.922;5.742;2022-08-06T04:19:55;14.90;99.90
57132;DHT22;43005;52.922;5.742;2022-08-06T04:22:21;14.80;99.90
57132;DHT22;43005;52.922;5.742;2022-08-06T04:24:48;14.80;99.90
57132;DHT22;43005;52.922;5.742;2022-08-06T04:27:15;14.80;99.90
57132;DHT22;43005;52.922;5.742;2022-08-06T04:29:42;14.80;99.90
57132;DHT22;43005;52.922;5.742;2022-08-06T04:32:10;14.80;99.90
57132;DHT22;43005;52.922;5.742;2022-08-06T04:34:41;14.90;99.90
57132;DHT22;43005;52.922;5.742;2022-08-06T04:37:09;14.90;99.90
57132;DHT22;43005;52.922;5.742;2022-08-06T04:39:37;15.00;99.90
57132;DHT22;43005;52.922;5.742;2022-08-06T04:42:04;15.00;99.90
57132;DHT22;43005;52.922;5.742;2022-08-06T04:44:32;15.00;99.90
57132;DHT22;43005;52.922;5.742;2022-08-06T04:46:59;15.00;99.90
57132;DHT22;43005;52.922;5.742;2022-08-06T04:49:26;15.00;99.90
57132;DHT22;43005;52.922;5.742;2022-08-06T04:51:55;15.00;99.90
57132;DHT22;43005;52.922;5.742;2022-08-06T04:54:21;15.00;99.90
57132;DHT22;43005;52.922;5.742;2022-08-06T04:56:48;15.00;99.90
57132;DHT22;43005;52.922;5.742;2022-08-06T04:59:15;15.00;99.90
57132;DHT22;43005;52.922;5.742;2022-08-06T05:01:42;15.00;99.90
57132;DHT22;43005;52.922;5.742;2022-08-06T05:04:09;15.00;99.90
57132;DHT22;43005;52.922;5.742;2022-08-06T05:06:38;15.10;99.90
57132;DHT22;43005;52.922;5.742;2022-08-06T05:09:09;15.10;99.90
57132;DHT22;43005;52.922;5.742;2022-08-06T05:11:39;15.10;99.90
57132;DHT22;43005;52.922;5.742;2022-08-06T05:14:08;15.10;99.90
57132;DHT22;43005;52.922;5.742;2022-08-06T05:16:37;15.10;99.90
57132;DHT22;43005;52.922;5.742;2022-08-06T05:19:08;15.20;99.90
57132;DHT22;43005;52.922;5.742;2022-08-06T05:21:37;15.30;99.90
57132;DHT22;43005;52.922;5.742;2022-08-06T05:24:04;15.40;99.90
57132;DHT22;43005;52.922;5.742;2022-08-06T05:26:34;15.40;99.90
57132;DHT22;43005;52.922;5.742;2022-08-06T05:29:01;15.50;99.90
57132;DHT22;43005;52.922;5.742;2022-08-06T05:31:28;15.50;99.90
57132;DHT22;43005;52.922;5.742;2022-08-06T05:33:55;15.50;99.90
57132;DHT22;43005;52.922;5.742;2022-08-06T05:36:21;15.60;99.90
57132;DHT22;43005;52.922;5.742;2022-08-06T05:38:48;15.60;99.90
57132;DHT22;43005;52.922;5.742;2022-08-06T05:41:15;15.60;99.90
57132;DHT22;43005;52.922;5.742;2022-08-06T05:43:43;15.70;99.90
57132;DHT22;43005;52.922;5.742;2022-08-06T05:46:11;15.90;99.90
57132;DHT22;43005;52.922;5.742;2022-08-06T05:48:40;16.00;99.90
57132;DHT22;43005;52.922;5.742;2022-08-06T05:51:09;16.20;99.90
57132;DHT22;43005;52.922;5.742;2022-08-06T05:53:41;16.50;99.90
57132;DHT22;43005;52.922;5.742;2022-08-06T05:56:10;16.70;99.90
57132;DHT22;43005;52.922;5.742;2022-08-06T05:58:39;17.00;99.90
57132;DHT22;43005;52.922;5.742;2022-08-06T06:01:09;17.30;99.90
57132;DHT22;43005;52.922;5.742;2022-08-06T06:03:36;17.60;99.90
57132;DHT22;43005;52.922;5.742;2022-08-06T06:06:04;17.80;99.90
57132;DHT22;43005;52.922;5.742;2022-08-06T06:08:31;18.00;99.90
57132;DHT22;43005;52.922;5.742;2022-08-06T06:10:58;18.30;99.90
57132;DHT22;43005;52.922;5.742;2022-08-06T06:13:25;18.50;99.90
57132;DHT22;43005;52.922;5.742;2022-08-06T06:15:53;18.70;99.90
57132;DHT22;43005;52.922;5.742;2022-08-06T06:18:26;19.00;99.00
57132;DHT22;43005;52.922;5.742;2022-08-06T06:20:58;19.20;97.50
57132;DHT22;43005;52.922;5.742;2022-08-06T06:23:29;19.40;95.80
57132;DHT22;43005;52.922;5.742;2022-08-06T06:25:59;19.60;92.00
57132;DHT22;43005;52.922;5.742;2022-08-06T06:28:28;19.70;91.10
57132;DHT22;43005;52.922;5.742;2022-08-06T06:30:56;20.00;91.30
57132;DHT22;43005;52.922;5.742;2022-08-06T06:33:27;20.10;87.10
57132;DHT22;43005;52.922;5.742;2022-08-06T06:35:55;20.20;84.20
57132;DHT22;43005;52.922;5.742;2022-08-06T06:38:26;20.30;80.00
57132;DHT22;43005;52.922;5.742;2022-08-06T06:40:57;20.50;79.40
57132;DHT22;43005;52.922;5.742;2022-08-06T06:43:27;20.60;79.30
57132;DHT22;43005;52.922;5.742;2022-08-06T06:45:56;20.70;78.40
57132;DHT22;43005;52.922;5.742;2022-08-06T06:48:28;21.00;77.90
57132;DHT22;43005;52.922;5.742;2022-08-06T06:50:59;21.00;74.90
57132;DHT22;43005;52.922;5.742;2022-08-06T06:53:29;21.20;74.10
57132;DHT22;43005;52.922;5.742;2022-08-06T06:55:56;21.30;73.20
57132;DHT22;43005;52.922;5.742;2022-08-06T06:58:25;21.40;72.30
57132;DHT22;43005;52.922;5.742;2022-08-06T07:00:54;21.50;71.70
57132;DHT22;43005;52.922;5.742;2022-08-06T07:03:21;21.50;68.90
57132;DHT22;43005;52.922;5.742;2022-08-06T07:05:50;21.60;67.70
57132;DHT22;43005;52.922;5.742;2022-08-06T07:08:19;21.70;68.50
57132;DHT22;43005;52.922;5.742;2022-08-06T07:10:46;21.80;67.90
57132;DHT22;43005;52.922;5.742;2022-08-06T07:13:14;22.00;66.10
57132;DHT22;43005;52.922;5.742;2022-08-06T07:15:42;22.00;65.20
57132;DHT22;43005;52.922;5.742;2022-08-06T07:18:09;22.20;64.20
57132;DHT22;43005;52.922;5.742;2022-08-06T07:20:36;22.50;62.70
57132;DHT22;43005;52.922;5.742;2022-08-06T07:23:06;22.90;60.80
57132;DHT22;43005;52.922;5.742;2022-08-06T07:25:34;23.40;60.80
57132;DHT22;43005;52.922;5.742;2022-08-06T07:28:03;24.00;60.40
57132;DHT22;43005;52.922;5.742;2022-08-06T07:30:30;24.50;58.70
57132;DHT22;43005;52.922;5.742;2022-08-06T07:32:58;24.90;56.90
57132;DHT22;43005;52.922;5.742;2022-08-06T07:35:25;25.40;56.80
57132;DHT22;43005;52.922;5.742;2022-08-06T07:37:53;25.70;54.50
57132;DHT22;43005;52.922;5.742;2022-08-06T07:40:22;26.10;53.50
57132;DHT22;43005;52.922;5.742;2022-08-06T07:42:50;26.30;52.70
57132;DHT22;43005;52.922;5.742;2022-08-06T07:45:19;26.40;53.00
57132;DHT22;43005;52.922;5.742;2022-08-06T07:47:48;26.30;50.30
57132;DHT22;43005;52.922;5.742;2022-08-06T07:50:15;25.90;50.40
57132;DHT22;43005;52.922;5.742;2022-08-06T07:52:43;25.70;51.40
57132;DHT22;43005;52.922;5.742;2022-08-06T07:55:10;25.70;53.10
57132;DHT22;43005;52.922;5.742;2022-08-06T07:57:39;25.50;52.00
57132;DHT22;43005;52.922;5.742;2022-08-06T08:00:06;25.30;51.70
57132;DHT22;43005;52.922;5.742;2022-08-06T08:02:33;24.70;49.90
57132;DHT22;43005;52.922;5.742;2022-08-06T08:05:00;24.20;50.80
57132;DHT22;43005;52.922;5.742;2022-08-06T08:07:50;24.00;52.20
57132;DHT22;43005;52.922;5.742;2022-08-06T08:10:17;23.90;50.90
57132;DHT22;43005;52.922;5.742;2022-08-06T08:12:46;24.00;51.00
57132;DHT22;43005;52.922;5.742;2022-08-06T08:15:14;24.00;49.20
57132;DHT22;43005;52.922;5.742;2022-08-06T08:17:41;24.00;49.80
57132;DHT22;43005;52.922;5.742;2022-08-06T08:20:08;24.00;50.00
57132;DHT22;43005;52.922;5.742;2022-08-06T08:22:36;24.00;48.90
57132;DHT22;43005;52.922;5.742;2022-08-06T08:25:03;24.00;48.90
57132;DHT22;43005;52.922;5.742;2022-08-06T08:27:30;24.00;48.50
57132;DHT22;43005;52.922;5.742;2022-08-06T08:29:58;24.00;48.90
57132;DHT22;43005;52.922;5.742;2022-08-06T08:32:25;24.20;49.50
57132;DHT22;43005;52.922;5.742;2022-08-06T08:34:51;24.50;49.10
57132;DHT22;43005;52.922;5.742;2022-08-06T08:37:18;24.70;48.50
57132;DHT22;43005;52.922;5.742;2022-08-06T08:39:45;24.80;46.10
57132;DHT22;43005;52.922;5.742;2022-08-06T08:42:14;24.80;44.80
57132;DHT22;43005;52.922;5.742;2022-08-06T08:44:43;24.90;44.60
57132;DHT22;43005;52.922;5.742;2022-08-06T08:47:13;25.10;45.90
57132;DHT22;43005;52.922;5.742;2022-08-06T08:49:40;25.20;45.30
57132;DHT22;43005;52.922;5.742;2022-08-06T08:52:08;25.40;45.30
57132;DHT22;43005;52.922;5.742;2022-08-06T08:54:35;25.30;46.10
57132;DHT22;43005;52.922;5.742;2022-08-06T08:57:03;25.20;46.60
57132;DHT22;43005;52.922;5.742;2022-08-06T08:59:29;25.00;46.60
57132;DHT22;43005;52.922;5.742;2022-08-06T09:01:56;25.00;46.80
57132;DHT22;43005;52.922;5.742;2022-08-06T09:04:25;25.10;45.70
57132;DHT22;43005;52.922;5.742;2022-08-06T09:06:52;25.20;46.70
57132;DHT22;43005;52.922;5.742;2022-08-06T09:09:19;25.50;47.20
57132;DHT22;43005;52.922;5.742;2022-08-06T09:11:46;25.70;46.70
57132;DHT22;43005;52.922;5.742;2022-08-06T09:14:13;25.70;44.00
57132;DHT22;43005;52.922;5.742;2022-08-06T09:16:39;25.80;43.50
57132;DHT22;43005;52.922;5.742;2022-08-06T09:19:06;25.90;42.00
57132;DHT22;43005;52.922;5.742;2022-08-06T09:21:35;26.00;41.90
57132;DHT22;43005;52.922;5.742;2022-08-06T09:24:01;26.00;44.00
57132;DHT22;43005;52.922;5.742;2022-08-06T09:26:28;26.10;45.60
57132;DHT22;43005;52.922;5.742;2022-08-06T09:28:59;25.80;45.30
57132;DHT22;43005;52.922;5.742;2022-08-06T09:31:26;25.70;44.40
57132;DHT22;43005;52.922;5.742;2022-08-06T09:33:53;25.70;44.90
57132;DHT22;43005;52.922;5.742;2022-08-06T09:36:21;25.80;44.60
57132;DHT22;43005;52.922;5.742;2022-08-06T09:38:50;25.90;44.70
57132;DHT22;43005;52.922;5.742;2022-08-06T09:41:17;26.20;42.50
57132;DHT22;43005;52.922;5.742;2022-08-06T09:43:45;26.30;42.90
57132;DHT22;43005;52.922;5.742;2022-08-06T09:46:12;26.10;43.40
57132;DHT22;43005;52.922;5.742;2022-08-06T09:48:42;25.70;44.50
57132;DHT22;43005;52.922;5.742;2022-08-06T09:51:21;25.40;45.60
57132;DHT22;43005;52.922;5.742;2022-08-06T09:53:52;25.10;46.20
57132;DHT22;43005;52.922;5.742;2022-08-06T09:56:19;25.00;46.30
57132;DHT22;43005;52.922;5.742;2022-08-06T09:58:46;25.10;46.50
57132;DHT22;43005;52.922;5.742;2022-08-06T10:01:14;25.30;46.50
57132;DHT22;43005;52.922;5.742;2022-08-06T10:03:41;25.50;45.60
57132;DHT22;43005;52.922;5.742;2022-08-06T10:06:09;25.80;45.30
57132;DHT22;43005;52.922;5.742;2022-08-06T10:08:37;25.90;45.00
57132;DHT22;43005;52.922;5.742;2022-08-06T10:11:06;25.60;45.10
57132;DHT22;43005;52.922;5.742;2022-08-06T10:13:33;25.20;45.00
57132;DHT22;43005;52.922;5.742;2022-08-06T10:16:01;24.90;45.60
57132;DHT22;43005;52.922;5.742;2022-08-06T10:18:40;25.00;45.90
57132;DHT22;43005;52.922;5.742;2022-08-06T10:21:09;25.20;46.10
57132;DHT22;43005;52.922;5.742;2022-08-06T10:23:37;25.60;45.20
57132;DHT22;43005;52.922;5.742;2022-08-06T10:26:06;25.90;44.80
57132;DHT22;43005;52.922;5.742;2022-08-06T10:28:34;25.90;44.00
57132;DHT22;43005;52.922;5.742;2022-08-06T10:31:02;25.90;43.50
57132;DHT22;43005;52.922;5.742;2022-08-06T10:33:31;26.00;43.00
57132;DHT22;43005;52.922;5.742;2022-08-06T10:35:59;26.10;42.90
57132;DHT22;43005;52.922;5.742;2022-08-06T10:38:26;26.20;43.40
57132;DHT22;43005;52.922;5.742;2022-08-06T10:40:54;26.50;42.70
57132;DHT22;43005;52.922;5.742;2022-08-06T10:43:25;26.80;42.30
57132;DHT22;43005;52.922;5.742;2022-08-06T10:45:51;26.80;42.30
57132;DHT22;43005;52.922;5.742;2022-08-06T10:48:19;26.60;40.60
57132;DHT22;43005;52.922;5.742;2022-08-06T10:50:46;26.50;41.70
57132;DHT22;43005;52.922;5.742;2022-08-06T10:53:13;26.60;40.40
57132;DHT22;43005;52.922;5.742;2022-08-06T10:55:41;26.80;41.30
57132;DHT22;43005;52.922;5.742;2022-08-06T10:58:08;27.20;41.90
57132;DHT22;43005;52.922;5.742;2022-08-06T11:00:37;27.50;41.40
57132;DHT22;43005;52.922;5.742;2022-08-06T11:03:10;27.20;40.30
57132;DHT22;43005;52.922;5.742;2022-08-06T11:05:39;27.00;40.80
57132;DHT22;43005;52.922;5.742;2022-08-06T11:08:19;27.30;40.70
57132;DHT22;43005;52.922;5.742;2022-08-06T11:10:58;27.70;40.40
57132;DHT22;43005;52.922;5.742;2022-08-06T11:13:31;27.80;39.70
57132;DHT22;43005;52.922;5.742;2022-08-06T11:16:00;28.10;39.90
57132;DHT22;43005;52.922;5.742;2022-08-06T11:18:27;28.20;40.10
57132;DHT22;43005;52.922;5.742;2022-08-06T11:20:56;28.20;39.30
57132;DHT22;43005;52.922;5.742;2022-08-06T11:23:28;27.80;39.10
57132;DHT22;43005;52.922;5.742;2022-08-06T11:26:00;27.50;39.80
57132;DHT22;43005;52.922;5.742;2022-08-06T11:31:29;27.00;40.10
57132;DHT22;43005;52.922;5.742;2022-08-06T11:34:00;26.70;41.20
57132;DHT22;43005;52.922;5.742;2022-08-06T11:36:54;26.50;42.30
57132;DHT22;43005;52.922;5.742;2022-08-06T11:39:22;26.30;41.40
57132;DHT22;43005;52.922;5.742;2022-08-06T11:41:53;26.30;41.60
57132;DHT22;43005;52.922;5.742;2022-08-06T11:44:23;26.50;42.30
57132;DHT22;43005;52.922;5.742;2022-08-06T11:47:06;26.70;39.90
57132;DHT22;43005;52.922;5.742;2022-08-06T11:49:34;26.80;38.90
57132;DHT22;43005;52.922;5.742;2022-08-06T11:52:01;27.20;37.90
57132;DHT22;43005;52.922;5.742;2022-08-06T11:54:29;27.30;37.20
57132;DHT22;43005;52.922;5.742;2022-08-06T11:59:44;28.10;37.90
57132;DHT22;43005;52.922;5.742;2022-08-06T12:02:15;28.80;38.40
57132;DHT22;43005;52.922;5.742;2022-08-06T12:04:43;28.60;36.70
57132;DHT22;43005;52.922;5.742;2022-08-06T12:07:13;28.10;36.00
57132;DHT22;43005;52.922;5.742;2022-08-06T12:09:47;27.90;37.20
57132;DHT22;43005;52.922;5.742;2022-08-06T12:12:35;27.60;37.60
57132;DHT22;43005;52.922;5.742;2022-08-06T12:17:57;28.30;37.30
57132;DHT22;43005;52.922;5.742;2022-08-06T12:20:28;28.40;36.20
57132;DHT22;43005;52.922;5.742;2022-08-06T12:22:55;28.40;35.70
57132;DHT22;43005;52.922;5.742;2022-08-06T12:25:28;28.20;35.90
57132;DHT22;43005;52.922;5.742;2022-08-06T12:27:55;28.20;35.70
57132;DHT22;43005;52.922;5.742;2022-08-06T12:30:23;28.10;36.20
57132;DHT22;43005;52.922;5.742;2022-08-06T12:32:58;28.30;36.50
57132;DHT22;43005;52.922;5.742;2022-08-06T12:35:26;28.70;36.30
57132;DHT22;43005;52.922;5.742;2022-08-06T12:37:57;29.10;36.40
57132;DHT22;43005;52.922;5.742;2022-08-06T12:40:24;29.70;34.80
57132;DHT22;43005;52.922;5.742;2022-08-06T12:42:53;30.10;34.60
57132;DHT22;43005;52.922;5.742;2022-08-06T12:45:20;30.50;34.10
57132;DHT22;43005;52.922;5.742;2022-08-06T12:47:57;30.90;34.20
57132;DHT22;43005;52.922;5.742;2022-08-06T12:50:24;31.20;33.40
57132;DHT22;43005;52.922;5.742;2022-08-06T12:53:01;31.40;31.90
57132;DHT22;43005;52.922;5.742;2022-08-06T12:55:28;31.70;31.70
57132;DHT22;43005;52.922;5.742;2022-08-06T12:57:55;31.90;31.70
57132;DHT22;43005;52.922;5.742;2022-08-06T13:00:22;32.10;31.70
57132;DHT22;43005;52.922;5.742;2022-08-06T13:02:49;32.40;31.20
57132;DHT22;43005;52.922;5.742;2022-08-06T13:05:17;32.80;31.70
57132;DHT22;43005;52.922;5.742;2022-08-06T13:07:45;33.50;31.30
57132;DHT22;43005;52.922;5.742;2022-08-06T13:10:12;33.90;30.60
57132;DHT22;43005;52.922;5.742;2022-08-06T13:12:39;34.00;29.70
57132;DHT22;43005;52.922;5.742;2022-08-06T13:15:10;34.10;30.20
57132;DHT22;43005;52.922;5.742;2022-08-06T13:17:37;34.30;29.30
57132;DHT22;43005;52.922;5.742;2022-08-06T13:20:04;34.50;29.30
57132;DHT22;43005;52.922;5.742;2022-08-06T13:22:32;34.50;29.30
57132;DHT22;43005;52.922;5.742;2022-08-06T13:25:14;34.00;29.20
57132;DHT22;43005;52.922;5.742;2022-08-06T13:27:42;34.00;29.20
57132;DHT22;43005;52.922;5.742;2022-08-06T13:30:09;34.20;29.40
57132;DHT22;43005;52.922;5.742;2022-08-06T13:32:36;34.40;29.40
57132;DHT22;43005;52.922;5.742;2022-08-06T13:35:03;34.70;28.80
57132;DHT22;43005;52.922;5.742;2022-08-06T13:37:49;34.90;28.20
57132;DHT22;43005;52.922;5.742;2022-08-06T13:40:16;35.20;29.40
57132;DHT22;43005;52.922;5.742;2022-08-06T13:42:50;35.50;28.10
57132;DHT22;43005;52.922;5.742;2022-08-06T13:45:21;35.50;28.10
57132;DHT22;43005;52.922;5.742;2022-08-06T13:47:48;35.40;27.10
57132;DHT22;43005;52.922;5.742;2022-08-06T13:50:17;35.00;28.10
57132;DHT22;43005;52.922;5.742;2022-08-06T13:52:44;35.30;28.00
57132;DHT22;43005;52.922;5.742;2022-08-06T13:55:12;35.30;27.60
57132;DHT22;43005;52.922;5.742;2022-08-06T13:57:39;35.40;28.10
57132;DHT22;43005;52.922;5.742;2022-08-06T14:00:06;35.80;27.20
57132;DHT22;43005;52.922;5.742;2022-08-06T14:02:33;35.80;26.80
57132;DHT22;43005;52.922;5.742;2022-08-06T14:05:00;35.10;26.20
57132;DHT22;43005;52.922;5.742;2022-08-06T14:07:27;35.10;27.80
57132;DHT22;43005;52.922;5.742;2022-08-06T14:09:56;35.50;27.50
57132;DHT22;43005;52.922;5.742;2022-08-06T14:12:24;36.00;27.30
57132;DHT22;43005;52.922;5.742;2022-08-06T14:14:51;36.70;27.30
57132;DHT22;43005;52.922;5.742;2022-08-06T14:17:18;37.10;26.80
57132;DHT22;43005;52.922;5.742;2022-08-06T14:19:44;37.30;26.70
57132;DHT22;43005;52.922;5.742;2022-08-06T14:22:11;37.60;26.00
57132;DHT22;43005;52.922;5.742;2022-08-06T14:24:38;37.90;25.50
57132;DHT22;43005;52.922;5.742;2022-08-06T14:27:05;38.00;25.80
57132;DHT22;43005;52.922;5.742;2022-08-06T14:29:33;38.00;25.70
57132;DHT22;43005;52.922;5.742;2022-08-06T14:32:00;38.20;25.30
57132;DHT22;43005;52.922;5.742;2022-08-06T14:34:27;38.40;25.30
57132;DHT22;43005;52.922;5.742;2022-08-06T14:36:55;38.60;25.40
57132;DHT22;43005;52.922;5.742;2022-08-06T14:39:21;38.30;24.60
57132;DHT22;43005;52.922;5.742;2022-08-06T14:41:48;38.00;24.50
57132;DHT22;43005;52.922;5.742;2022-08-06T14:44:34;37.70;24.40
57132;DHT22;43005;52.922;5.742;2022-08-06T14:47:18;37.50;24.90
57132;DHT22;43005;52.922;5.742;2022-08-06T14:49:45;37.50;25.00
57132;DHT22;43005;52.922;5.742;2022-08-06T14:52:11;37.80;25.50
57132;DHT22;43005;52.922;5.742;2022-08-06T14:54:39;38.10;24.90
57132;DHT22;43005;52.922;5.742;2022-08-06T14:57:07;38.00;24.40
57132;DHT22;43005;52.922;5.742;2022-08-06T14:59:35;38.40;24.70
57132;DHT22;43005;52.922;5.742;2022-08-06T15:02:02;38.70;24.60
57132;DHT22;43005;52.922;5.742;2022-08-06T15:04:29;39.00;24.80
57132;DHT22;43005;52.922;5.742;2022-08-06T15:06:56;39.50;24.00
57132;DHT22;43005;52.922;5.742;2022-08-06T15:09:23;39.70;24.00
57132;DHT22;43005;52.922;5.742;2022-08-06T15:11:49;39.80;23.70
57132;DHT22;43005;52.922;5.742;2022-08-06T15:14:16;39.70;23.30
57132;DHT22;43005;52.922;5.742;2022-08-06T15:16:44;39.40;23.80
57132;DHT22;43005;52.922;5.742;2022-08-06T15:19:11;38.70;23.90
57132;DHT22;43005;52.922;5.742;2022-08-06T15:21:38;37.70;24.00
57132;DHT22;43005;52.922;5.742;2022-08-06T15:24:05;36.50;24.70
57132;DHT22;43005;52.922;5.742;2022-08-06T15:26:31;35.50;25.30
57132;DHT22;43005;52.922;5.742;2022-08-06T15:28:58;34.50;26.00
57132;DHT22;43005;52.922;5.742;2022-08-06T15:31:26;33.40;26.60
57132;DHT22;43005;52.922;5.742;2022-08-06T15:33:54;32.50;27.50
57132;DHT22;43005;52.922;5.742;2022-08-06T15:36:22;32.00;28.40
57132;DHT22;43005;52.922;5.742;2022-08-06T15:38:49;31.50;28.30
57132;DHT22;43005;52.922;5.742;2022-08-06T15:41:17;30.80;28.80
57132;DHT22;43005;52.922;5.742;2022-08-06T15:43:45;30.10;29.50
57132;DHT22;43005;52.922;5.742;2022-08-06T15:46:12;29.50;30.00
57132;DHT22;43005;52.922;5.742;2022-08-06T15:48:40;28.80;30.80